Time;durP1;ratioP1;P1;durP2;ratioP2;P2;SDS_P1;SDS_P2;PMS_P1;PMS_P2;Temp;Humidity;BMP_temperature;BMP_pressure;BME280_temperature;BME280_humidity;BME280_pressure;Samples;Min_cycle;Max_cycle;Signal;HPM_P1;HPM_P2
2022/10/11 00:02:20;;;;;;;4.57;2.70;;;7.40;99.90;;;;;;5063078;28;20219;-86
2022/10/11 00:04:46;;;;;;;6.70;2.03;;;7.40;99.90;;;;;;5063750;28;20179;-85
2022/10/11 00:07:11;;;;;;;4.37;2.83;;;7.40;99.90;;;;;;5046354;28;20198;-85
2022/10/11 00:09:37;;;;;;;5.70;2.83;;;7.30;99.90;;;;;;5063690;28;20199;-85
2022/10/11 00:12:03;;;;;;;6.67;2.27;;;7.30;99.90;;;;;;5082214;28;20273;-86
2022/10/11 00:14:29;;;;;;;5.57;2.73;;;7.20;99.90;;;;;;5063865;28;20175;-86
2022/10/11 00:16:55;;;;;;;3.83;2.10;;;7.20;99.90;;;;;;5082001;28;20198;-85
2022/10/11 00:19:21;;;;;;;7.90;2.10;;;7.10;99.90;;;;;;5083459;28;20183;-93
2022/10/11 00:21:47;;;;;;;3.70;2.50;;;7.10;99.90;;;;;;5064983;28;20189;-85
2022/10/11 00:24:14;;;;;;;4.27;3.13;;;7.00;99.90;;;;;;5065910;28;20206;-85
2022/10/11 00:26:40;;;;;;;4.50;2.07;;;7.00;99.90;;;;;;5049505;28;20407;-85
2022/10/11 00:29:06;;;;;;;4.60;2.80;;;6.90;99.90;;;;;;5083961;28;20217;-85
2022/10/11 00:31:32;;;;;;;5.77;2.83;;;6.90;99.90;;;;;;5049434;28;20210;-85
2022/10/11 00:33:58;;;;;;;8.53;2.93;;;6.80;99.90;;;;;;5051956;28;20179;-85
2022/10/11 00:36:23;;;;;;;4.10;2.97;;;6.80;99.90;;;;;;5086564;28;20202;-86
2022/10/11 00:38:49;;;;;;;5.57;2.87;;;6.80;99.90;;;;;;5052116;28;20191;-85
2022/10/11 00:41:15;;;;;;;6.80;2.80;;;6.70;99.90;;;;;;5068862;28;20191;-85
2022/10/11 00:43:41;;;;;;;5.20;2.67;;;6.60;99.90;;;;;;5086831;28;20198;-84
2022/10/11 00:46:29;;;;;;;4.57;2.33;;;6.60;99.90;;;;;;5068718;28;20711;-84
2022/10/11 00:49:12;;;;;;;3.17;2.40;;;6.60;99.90;;;;;;5069791;28;20206;-83
2022/10/11 00:51:47;;;;;;;3.83;2.50;;;6.50;99.90;;;;;;5080267;28;20221;-85
2022/10/11 00:54:16;;;;;;;3.70;2.87;;;6.50;99.90;;;;;;5074893;28;20182;-85
2022/10/11 00:56:44;;;;;;;4.93;2.40;;;6.40;99.90;;;;;;5081280;28;20171;-83
2022/10/11 00:59:16;;;;;;;6.80;3.17;;;6.40;99.90;;;;;;5071582;28;20186;-83
2022/10/11 01:01:42;;;;;;;6.40;2.53;;;6.40;99.90;;;;;;5062453;28;20198;-85
2022/10/11 01:04:08;;;;;;;3.60;2.00;;;6.30;99.90;;;;;;5056437;28;20206;-84
2022/10/11 01:06:34;;;;;;;3.90;2.73;;;6.30;99.90;;;;;;5056902;28;20176;-84
2022/10/11 01:09:00;;;;;;;2.90;2.40;;;6.40;99.90;;;;;;5074735;28;20206;-85
2022/10/11 01:11:28;;;;;;;5.50;2.60;;;6.40;99.90;;;;;;5056709;28;20179;-85
2022/10/11 01:14:20;;;;;;;4.70;2.30;;;6.40;99.90;;;;;;5095099;28;20175;-83
2022/10/11 01:17:05;;;;;;;3.87;2.40;;;6.30;99.90;;;;;;5093160;28;20168;-85
2022/10/11 01:20:01;;;;;;;6.03;3.00;;;6.30;99.90;;;;;;5055003;28;20232;-86
2022/10/11 01:22:35;;;;;;;5.17;2.43;;;6.20;99.90;;;;;;5073427;28;20229;-85
2022/10/11 01:25:15;;;;;;;5.70;2.67;;;6.20;99.90;;;;;;5055529;28;20831;-85
2022/10/11 01:28:14;;;;;;;4.50;2.67;;;6.20;99.90;;;;;;5055224;28;20202;-85
2022/10/11 01:30:41;;;;;;;9.40;2.70;;;6.10;99.90;;;;;;5073392;28;20203;-85
2022/10/11 01:33:31;;;;;;;3.57;2.23;;;6.10;99.90;;;;;;5073155;28;20713;-85
2022/10/11 01:36:13;;;;;;;6.67;2.27;;;6.00;99.90;;;;;;5055411;28;20186;-85
2022/10/11 01:39:07;;;;;;;3.27;1.80;;;6.00;99.90;;;;;;5055289;28;20175;-85
2022/10/11 01:41:39;;;;;;;5.77;2.63;;;6.00;99.90;;;;;;5051905;28;20195;-86
2022/10/11 01:44:07;;;;;;;6.10;2.83;;;6.00;99.90;;;;;;5073119;28;20175;-85
2022/10/11 01:46:33;;;;;;;4.93;2.27;;;6.00;99.90;;;;;;5073182;28;20231;-86
2022/10/11 01:49:01;;;;;;;2.90;2.43;;;6.10;99.90;;;;;;5072979;28;20199;-85
2022/10/11 01:51:31;;;;;;;5.57;2.73;;;6.20;99.90;;;;;;5055191;28;20262;-85
2022/10/11 01:54:15;;;;;;;4.20;2.17;;;6.20;99.90;;;;;;5073224;28;20177;-85
2022/10/11 01:57:18;;;;;;;9.70;2.40;;;6.20;99.90;;;;;;5055046;28;20655;-85
2022/10/11 02:00:07;;;;;;;5.27;2.13;;;6.30;99.90;;;;;;5072746;28;20175;-85
2022/10/11 02:02:43;;;;;;;4.00;1.80;;;6.30;99.90;;;;;;5055270;28;20553;-86
2022/10/11 02:05:21;;;;;;;5.97;2.13;;;6.30;99.90;;;;;;5055210;28;20213;-85
2022/10/11 02:08:25;;;;;;;5.53;2.33;;;6.40;99.90;;;;;;5054651;28;20213;-85
2022/10/11 02:11:25;;;;;;;3.80;1.97;;;6.40;99.90;;;;;;5054943;28;20570;-86
2022/10/11 02:14:02;;;;;;;4.90;2.17;;;6.40;99.90;;;;;;5067379;28;20195;-86
2022/10/11 02:16:36;;;;;;;3.70;2.53;;;6.50;99.90;;;;;;5072926;28;20249;-86
2022/10/11 02:19:05;;;;;;;5.53;2.30;;;6.50;99.90;;;;;;5073342;28;20174;-85
2022/10/11 02:21:34;;;;;;;3.77;2.20;;;6.50;99.90;;;;;;5054967;28;20175;-85
2022/10/11 02:24:08;;;;;;;7.07;3.00;;;6.50;99.90;;;;;;5072690;28;20254;-85
2022/10/11 02:26:35;;;;;;;3.40;2.50;;;6.50;99.90;;;;;;5072973;28;20180;-85
2022/10/11 02:29:03;;;;;;;3.00;2.27;;;6.50;99.90;;;;;;5072608;28;20221;-85
2022/10/11 02:31:31;;;;;;;5.03;2.67;;;6.60;99.90;;;;;;5076262;28;20171;-85
2022/10/11 02:34:15;;;;;;;9.90;2.60;;;6.60;99.90;;;;;;5075889;28;20171;-85
2022/10/11 02:37:03;;;;;;;4.43;3.10;;;6.60;99.90;;;;;;5058365;28;20179;-85
2022/10/11 02:40:05;;;;;;;5.93;2.70;;;6.60;99.90;;;;;;5076845;28;20178;-85
2022/10/11 02:42:43;;;;;;;2.37;2.10;;;6.60;99.90;;;;;;5054802;28;20199;-86
2022/10/11 02:45:23;;;;;;;8.30;2.57;;;6.60;99.90;;;;;;5076000;28;20260;-86
2022/10/11 02:47:49;;;;;;;4.73;2.90;;;6.60;99.90;;;;;;5058034;28;20171;-86
2022/10/11 02:50:15;;;;;;;5.40;3.03;;;6.60;99.90;;;;;;5058183;28;20300;-86
2022/10/11 02:52:41;;;;;;;9.03;3.20;;;6.60;99.90;;;;;;5058137;28;20187;-86
2022/10/11 02:55:08;;;;;;;13.33;3.97;;;6.60;99.90;;;;;;5058227;28;20167;-85
2022/10/11 02:57:34;;;;;;;4.73;3.00;;;6.60;99.90;;;;;;5058178;28;20175;-86
2022/10/11 02:59:59;;;;;;;6.30;2.87;;;6.60;99.90;;;;;;5041697;28;20286;-85
2022/10/11 03:02:25;;;;;;;6.63;2.90;;;6.60;99.90;;;;;;5057987;28;20237;-85
2022/10/11 03:04:51;;;;;;;6.40;3.00;;;6.60;99.90;;;;;;5041043;28;20641;-85
2022/10/11 03:07:17;;;;;;;3.43;2.23;;;6.70;99.90;;;;;;5058204;28;20183;-85
2022/10/11 03:09:42;;;;;;;15.93;2.70;;;6.70;99.90;;;;;;5075883;28;20191;-84
2022/10/11 03:12:08;;;;;;;4.67;2.93;;;6.70;99.90;;;;;;5057934;28;20549;-85
2022/10/11 03:14:33;;;;;;;6.33;2.20;;;6.80;99.90;;;;;;5057931;28;20179;-85
2022/10/11 03:16:59;;;;;;;6.60;2.70;;;6.80;99.90;;;;;;5076014;28;20220;-84
2022/10/11 03:19:25;;;;;;;5.63;3.10;;;6.80;99.90;;;;;;5042227;28;20179;-84
2022/10/11 03:21:51;;;;;;;5.13;3.57;;;6.80;99.90;;;;;;5042381;28;20179;-84
2022/10/11 03:24:17;;;;;;;13.07;2.97;;;6.80;99.90;;;;;;5058001;28;20171;-85
2022/10/11 03:26:42;;;;;;;8.23;3.30;;;6.80;99.90;;;;;;5076045;28;20620;-84
2022/10/11 03:29:08;;;;;;;4.53;2.90;;;6.80;99.90;;;;;;5041003;28;20575;-84
2022/10/11 03:31:34;;;;;;;6.73;2.93;;;6.80;99.90;;;;;;5075575;28;20175;-84
2022/10/11 03:33:59;;;;;;;6.13;3.13;;;6.90;99.90;;;;;;5037204;28;20191;-84
2022/10/11 03:36:25;;;;;;;6.50;2.63;;;6.80;99.90;;;;;;5021099;28;20180;-84
2022/10/11 03:38:51;;;;;;;11.47;4.80;;;6.80;99.90;;;;;;5037502;28;20647;-84
2022/10/11 03:41:16;;;;;;;6.90;2.67;;;6.90;99.90;;;;;;5036825;28;20176;-84
2022/10/11 03:43:42;;;;;;;3.70;2.43;;;6.80;99.90;;;;;;5020709;28;20650;-85
2022/10/11 03:46:08;;;;;;;5.00;2.00;;;6.90;99.90;;;;;;5015417;28;20690;-85
2022/10/11 03:48:33;;;;;;;4.73;2.50;;;6.90;99.90;;;;;;5041386;28;20205;-85
2022/10/11 03:50:59;;;;;;;6.37;2.83;;;6.90;99.90;;;;;;5051519;28;20219;-88
2022/10/11 03:53:25;;;;;;;4.20;2.47;;;6.90;99.90;;;;;;5036138;28;20255;-85
2022/10/11 03:55:53;;;;;;;4.57;3.00;;;6.90;99.90;;;;;;5017805;28;20585;-85
2022/10/11 03:58:19;;;;;;;4.63;2.20;;;6.90;99.90;;;;;;5019626;28;20183;-85
2022/10/11 04:00:45;;;;;;;5.23;2.63;;;6.80;99.90;;;;;;5034848;28;20196;-85
2022/10/11 04:03:10;;;;;;;7.77;2.73;;;6.80;99.90;;;;;;5034809;28;20265;-85
2022/10/11 04:05:36;;;;;;;6.10;3.27;;;6.90;99.90;;;;;;5035181;28;20187;-84
2022/10/11 04:08:02;;;;;;;5.37;2.80;;;6.80;99.90;;;;;;5033600;28;20352;-85
2022/10/11 04:10:29;;;;;;;3.50;2.77;;;6.80;99.90;;;;;;5033834;28;20487;-85
2022/10/11 04:12:55;;;;;;;10.70;3.80;;;6.80;99.90;;;;;;5017267;28;20231;-85
2022/10/11 04:15:21;;;;;;;5.97;2.37;;;6.80;99.90;;;;;;5034726;28;20661;-85
2022/10/11 04:17:46;;;;;;;2.87;2.27;;;6.80;99.90;;;;;;5033633;28;20262;-85
2022/10/11 04:20:12;;;;;;;4.90;2.93;;;6.70;99.90;;;;;;5033574;28;20610;-85
2022/10/11 04:22:38;;;;;;;4.80;2.87;;;6.80;99.90;;;;;;5016793;28;20314;-87
2022/10/11 04:25:05;;;;;;;6.87;3.17;;;6.80;99.90;;;;;;5033187;28;20184;-85
2022/10/11 04:27:31;;;;;;;12.17;2.83;;;6.80;99.90;;;;;;5036363;28;20365;-86
2022/10/11 04:29:57;;;;;;;3.17;2.20;;;6.90;99.90;;;;;;5033177;28;20243;-83
2022/10/11 04:32:23;;;;;;;3.87;2.57;;;6.80;99.90;;;;;;5016470;28;20192;-83
2022/10/11 04:34:49;;;;;;;7.10;2.77;;;6.90;99.90;;;;;;5014967;28;20188;-84
2022/10/11 04:37:15;;;;;;;8.57;3.23;;;6.90;99.90;;;;;;5032817;28;20268;-82
2022/10/11 04:39:41;;;;;;;6.53;2.87;;;6.90;99.90;;;;;;5033217;28;20275;-83
2022/10/11 04:42:06;;;;;;;6.07;2.83;;;6.90;99.90;;;;;;5016415;28;20536;-85
2022/10/11 04:44:32;;;;;;;5.03;2.63;;;6.90;99.90;;;;;;5017093;28;20184;-82
2022/10/11 04:46:57;;;;;;;11.70;3.30;;;6.90;99.90;;;;;;5053197;28;20227;-84
2022/10/11 04:49:23;;;;;;;4.53;3.07;;;6.90;99.90;;;;;;5056875;28;20567;-84
2022/10/11 04:51:49;;;;;;;8.43;3.07;;;6.90;99.90;;;;;;5057271;28;20183;-83
2022/10/11 04:54:15;;;;;;;4.13;2.77;;;6.90;99.90;;;;;;5067583;28;20176;-83
2022/10/11 04:56:41;;;;;;;7.53;3.97;;;6.90;99.90;;;;;;5068402;28;20183;-83
2022/10/11 04:59:06;;;;;;;7.33;4.90;;;6.90;99.90;;;;;;5060624;28;20184;-83
2022/10/11 05:01:32;;;;;;;9.90;4.67;;;6.90;99.90;;;;;;5057930;28;20703;-83
2022/10/11 05:03:58;;;;;;;16.43;4.03;;;7.00;99.90;;;;;;5056200;28;20670;-83
2022/10/11 05:06:23;;;;;;;8.03;3.50;;;7.00;99.90;;;;;;5054005;28;20201;-84
2022/10/11 05:08:49;;;;;;;8.03;2.93;;;7.00;99.90;;;;;;5052861;28;20220;-83
2022/10/11 05:11:15;;;;;;;6.30;3.37;;;7.00;99.90;;;;;;5036105;28;20183;-83
2022/10/11 05:13:41;;;;;;;8.40;3.37;;;7.10;99.90;;;;;;5052478;28;20180;-83
2022/10/11 05:16:08;;;;;;;3.43;2.80;;;7.10;99.90;;;;;;5052473;28;20203;-85
2022/10/11 05:18:33;;;;;;;9.73;3.03;;;7.20;99.90;;;;;;5053696;28;20552;-83
2022/10/11 05:21:02;;;;;;;7.10;2.87;;;7.20;99.90;;;;;;5052650;28;20187;-84
2022/10/11 05:23:29;;;;;;;7.67;4.07;;;7.30;99.90;;;;;;5052910;28;20175;-83
2022/10/11 05:25:55;;;;;;;7.77;4.00;;;7.40;99.90;;;;;;5052890;28;20182;-82
2022/10/11 05:28:21;;;;;;;3.73;2.80;;;7.40;99.90;;;;;;5051795;28;20216;-83
2022/10/11 05:30:46;;;;;;;3.93;3.20;;;7.50;99.90;;;;;;5050358;28;20191;-83
2022/10/11 05:33:12;;;;;;;9.67;3.30;;;7.60;99.90;;;;;;5028492;28;20203;-84
2022/10/11 05:35:38;;;;;;;7.87;4.00;;;7.70;99.90;;;;;;5046414;28;20176;-84
2022/10/11 05:38:03;;;;;;;10.73;5.10;;;7.80;99.90;;;;;;5037550;28;20189;-83
2022/10/11 05:40:29;;;;;;;14.10;3.90;;;7.80;99.90;;;;;;5043997;28;20187;-84
2022/10/11 05:42:55;;;;;;;8.47;3.07;;;7.90;99.90;;;;;;5052862;28;20270;-84
2022/10/11 05:45:20;;;;;;;6.63;3.37;;;8.00;99.90;;;;;;5023071;28;20257;-84
2022/10/11 05:47:46;;;;;;;4.77;3.03;;;8.00;99.90;;;;;;5031412;28;20292;-85
2022/10/11 05:50:11;;;;;;;6.63;3.43;;;8.10;99.90;;;;;;5022337;28;20708;-85
2022/10/11 05:52:37;;;;;;;5.87;3.90;;;8.20;99.90;;;;;;5036150;28;20189;-85
2022/10/11 05:55:03;;;;;;;5.27;3.30;;;8.30;99.90;;;;;;5044131;28;20279;-85
2022/10/11 05:57:29;;;;;;;7.27;4.13;;;8.30;99.90;;;;;;5036469;28;20185;-85
2022/10/11 05:59:55;;;;;;;5.63;2.70;;;8.40;99.90;;;;;;5023851;28;20200;-85
2022/10/11 06:02:20;;;;;;;6.90;3.17;;;8.30;99.90;;;;;;5027616;28;20198;-86
2022/10/11 06:04:46;;;;;;;6.23;2.93;;;8.40;99.90;;;;;;5030657;28;20188;-86
2022/10/11 06:07:12;;;;;;;10.10;3.30;;;8.40;99.90;;;;;;5025849;28;20196;-86
2022/10/11 06:09:38;;;;;;;7.17;3.83;;;8.40;99.90;;;;;;5038448;28;20269;-85
2022/10/11 06:12:04;;;;;;;6.53;3.53;;;8.50;99.90;;;;;;5042312;28;20199;-85
2022/10/11 06:14:30;;;;;;;6.50;4.20;;;8.50;99.90;;;;;;5015404;28;20189;-86
2022/10/11 06:16:55;;;;;;;6.30;3.40;;;8.50;99.90;;;;;;5012872;28;20288;-85
2022/10/11 06:19:21;;;;;;;5.67;2.73;;;8.60;99.90;;;;;;5017202;28;20205;-84
2022/10/11 06:21:47;;;;;;;7.27;4.20;;;8.60;99.90;;;;;;5016489;28;20646;-85
2022/10/11 06:24:13;;;;;;;8.63;4.10;;;8.70;99.90;;;;;;5035290;28;20229;-87
2022/10/11 06:26:38;;;;;;;4.13;2.77;;;8.70;99.90;;;;;;5028924;28;20189;-85
2022/10/11 06:29:04;;;;;;;7.00;3.57;;;8.70;99.90;;;;;;5035749;28;20205;-85
2022/10/11 06:31:31;;;;;;;8.13;3.67;;;8.70;99.90;;;;;;5021861;28;20247;-85
2022/10/11 06:34:00;;;;;;;5.67;3.43;;;8.80;99.90;;;;;;5027910;28;20234;-84
2022/10/11 06:36:26;;;;;;;8.77;3.53;;;8.80;99.90;;;;;;5034020;28;20184;-84
2022/10/11 06:38:53;;;;;;;9.47;3.93;;;8.80;99.90;;;;;;5028911;28;20199;-83
2022/10/11 06:41:25;;;;;;;6.50;3.37;;;8.80;99.90;;;;;;5029469;28;20581;-88
2022/10/11 06:43:51;;;;;;;8.43;3.20;;;8.80;99.90;;;;;;5044085;28;20180;-87
2022/10/11 06:46:22;;;;;;;9.53;4.07;;;8.80;99.90;;;;;;5018236;28;20248;-84
2022/10/11 06:48:48;;;;;;;5.83;3.40;;;8.80;99.90;;;;;;5046966;28;20656;-85
2022/10/11 06:51:16;;;;;;;7.13;4.13;;;8.80;99.90;;;;;;5035750;28;20197;-84
2022/10/11 06:53:43;;;;;;;6.10;4.03;;;8.90;99.90;;;;;;5025243;28;20609;-85
2022/10/11 06:56:11;;;;;;;7.83;3.70;;;8.90;99.90;;;;;;5039266;28;20172;-85
2022/10/11 06:58:37;;;;;;;7.40;3.97;;;8.90;99.90;;;;;;5040097;28;20226;-84
2022/10/11 07:01:10;;;;;;;28.80;4.67;;;9.00;99.90;;;;;;5035782;28;20188;-85
2022/10/11 07:03:36;;;;;;;6.87;3.63;;;9.00;99.90;;;;;;5026183;28;20257;-85
2022/10/11 07:06:03;;;;;;;10.43;4.00;;;9.00;99.90;;;;;;5043614;28;20236;-84
2022/10/11 07:08:29;;;;;;;6.33;3.87;;;9.10;99.90;;;;;;5047419;28;20206;-84
2022/10/11 07:11:04;;;;;;;9.27;4.40;;;9.10;99.90;;;;;;5035261;28;20185;-85
2022/10/11 07:13:30;;;;;;;8.77;4.30;;;9.20;99.90;;;;;;5033427;28;20675;-85
2022/10/11 07:15:56;;;;;;;8.47;4.73;;;9.40;99.90;;;;;;5034913;28;20188;-84
2022/10/11 07:18:22;;;;;;;9.00;4.40;;;9.40;99.90;;;;;;5034447;28;20196;-85
2022/10/11 07:20:48;;;;;;;7.93;3.93;;;9.50;99.90;;;;;;5034440;28;20279;-84
2022/10/11 07:23:14;;;;;;;9.30;5.60;;;9.60;99.90;;;;;;5017685;28;20215;-84
2022/10/11 07:25:40;;;;;;;10.43;5.00;;;9.70;99.90;;;;;;5032427;28;20208;-84
2022/10/11 07:28:05;;;;;;;9.73;4.20;;;9.80;99.90;;;;;;5044459;28;20246;-85
2022/10/11 07:30:31;;;;;;;6.77;4.90;;;9.80;99.90;;;;;;5033617;28;20282;-84
2022/10/11 07:32:57;;;;;;;8.73;5.23;;;9.80;99.90;;;;;;5034366;28;20645;-85
2022/10/11 07:35:22;;;;;;;7.43;4.43;;;9.90;99.90;;;;;;5039860;28;20247;-86
2022/10/11 07:37:48;;;;;;;12.97;4.70;;;9.90;99.90;;;;;;5054830;28;20255;-85
2022/10/11 07:40:14;;;;;;;6.73;3.90;;;9.90;99.90;;;;;;5054420;28;20188;-86
2022/10/11 07:42:39;;;;;;;10.77;4.87;;;10.00;99.90;;;;;;5053844;28;20187;-85
2022/10/11 07:45:05;;;;;;;9.73;4.17;;;10.00;99.90;;;;;;5058743;28;20265;-85
2022/10/11 07:47:31;;;;;;;11.67;4.47;;;10.00;99.90;;;;;;5077157;28;20232;-85
2022/10/11 07:49:56;;;;;;;9.30;4.37;;;9.90;99.90;;;;;;5074774;28;20211;-84
2022/10/11 07:52:22;;;;;;;13.90;5.03;;;9.90;99.90;;;;;;5044496;28;20195;-85
2022/10/11 07:54:48;;;;;;;8.53;4.27;;;9.90;99.90;;;;;;5045235;28;20663;-84
2022/10/11 07:57:14;;;;;;;6.30;4.27;;;9.90;99.90;;;;;;5058939;28;20175;-86
2022/10/11 07:59:40;;;;;;;11.30;4.50;;;9.90;99.90;;;;;;5056986;28;20539;-85
2022/10/11 08:02:12;;;;;;;5.90;3.87;;;9.90;99.90;;;;;;5057043;28;20182;-85
2022/10/11 08:04:38;;;;;;;10.13;4.87;;;9.90;99.90;;;;;;5056556;28;20271;-84
2022/10/11 08:07:04;;;;;;;8.67;4.80;;;9.90;99.90;;;;;;5056787;28;20245;-85
2022/10/11 08:09:31;;;;;;;9.87;4.93;;;9.90;99.90;;;;;;5074220;28;20195;-85
2022/10/11 08:11:56;;;;;;;14.53;5.97;;;10.00;99.90;;;;;;5040054;28;20532;-86
2022/10/11 08:14:22;;;;;;;18.23;5.83;;;10.00;99.90;;;;;;5074268;28;20179;-84
2022/10/11 08:16:48;;;;;;;6.30;3.77;;;10.10;99.90;;;;;;5074594;28;20178;-85
2022/10/11 08:19:14;;;;;;;7.57;4.17;;;10.10;99.90;;;;;;5039677;28;20194;-86
2022/10/11 08:21:40;;;;;;;10.30;4.57;;;10.20;99.90;;;;;;5074246;28;20175;-85
2022/10/11 08:24:06;;;;;;;6.07;4.33;;;10.20;99.90;;;;;;5074476;28;20199;-85
2022/10/11 08:26:33;;;;;;;11.63;5.10;;;10.20;99.90;;;;;;5073857;28;20180;-85
2022/10/11 08:29:03;;;;;;;8.00;4.73;;;10.30;99.90;;;;;;5073838;28;20194;-85
2022/10/11 08:31:30;;;;;;;10.87;6.00;;;10.30;99.90;;;;;;5073614;28;20262;-85
2022/10/11 08:33:56;;;;;;;9.03;4.33;;;10.40;99.90;;;;;;5076344;28;20194;-84
2022/10/11 08:36:22;;;;;;;8.17;4.63;;;10.40;99.90;;;;;;5096575;28;20179;-90
2022/10/11 08:38:48;;;;;;;13.50;4.17;;;10.50;99.90;;;;;;5089434;28;20198;-86
2022/10/11 08:41:42;;;;;;;9.73;5.15;;;10.50;99.90;;;;;;5056478;28;20245;-85
2022/10/11 08:44:17;;;;;;;12.97;4.97;;;10.60;99.90;;;;;;5064317;28;20261;-85
2022/10/11 08:46:47;;;;;;;12.93;4.77;;;10.60;99.90;;;;;;5073443;28;20233;-85
2022/10/11 08:49:17;;;;;;;11.47;5.33;;;10.70;99.90;;;;;;5073636;28;20206;-85
2022/10/11 08:51:51;;;;;;;8.50;4.67;;;10.80;99.90;;;;;;5073625;28;20223;-85
2022/10/11 08:54:20;;;;;;;8.32;4.07;;;10.80;99.90;;;;;;5055865;28;20175;-85
2022/10/11 08:56:45;;;;;;;10.23;5.20;;;10.90;99.90;;;;;;5074030;28;20229;-84
2022/10/11 08:59:11;;;;;;;10.93;4.37;;;11.00;99.90;;;;;;5073832;28;20183;-85
2022/10/11 09:01:48;;;;;;;7.35;3.92;;;11.10;99.90;;;;;;5055714;28;20183;-85
2022/10/11 09:04:16;;;;;;;14.10;5.25;;;11.20;99.90;;;;;;5073855;28;20170;-84
2022/10/11 09:06:57;;;;;;;7.28;4.35;;;11.30;99.90;;;;;;5073625;28;20186;-87
2022/10/11 09:09:37;;;;;;;12.60;6.70;;;11.40;99.90;;;;;;5055898;28;20272;-88
2022/10/11 09:12:17;;;;;;;12.20;5.38;;;11.50;99.90;;;;;;5055968;28;20237;-85
2022/10/11 09:14:51;;;;;;;7.25;4.55;;;11.60;99.90;;;;;;5055928;28;20183;-86
2022/10/11 09:17:29;;;;;;;8.05;4.35;;;11.60;99.90;;;;;;5055786;28;20216;-85
2022/10/11 09:20:09;;;;;;;13.13;5.43;;;11.70;99.90;;;;;;5056233;28;20194;-85
2022/10/11 09:25:48;;;;;;;8.43;4.75;;;11.80;99.90;;;;;;5074564;28;20185;-85
2022/10/11 09:28:51;;;;;;;11.98;5.90;;;12.10;99.90;;;;;;5055766;28;20178;-86
2022/10/11 09:31:17;;;;;;;9.80;5.18;;;12.40;99.90;;;;;;5073432;28;20217;-87
2022/10/11 09:33:46;;;;;;;14.32;5.35;;;12.60;99.90;;;;;;5055869;28;20207;-86
2022/10/11 09:36:29;;;;;;;8.43;5.05;;;12.80;99.90;;;;;;5073353;28;20175;-85
2022/10/11 09:39:13;;;;;;;9.07;4.50;;;12.90;99.90;;;;;;5073181;28;20202;-86
2022/10/11 09:41:49;;;;;;;9.45;4.88;;;12.90;99.90;;;;;;5059636;28;20695;-86
2022/10/11 09:44:36;;;;;;;12.30;4.72;;;13.00;99.90;;;;;;5077890;28;20182;-87
2022/10/11 09:47:02;;;;;;;11.52;4.97;;;13.10;99.90;;;;;;5056043;28;20230;-87
2022/10/11 09:49:34;;;;;;;24.48;5.35;;;13.10;99.90;;;;;;5055887;28;20200;-87
2022/10/11 09:52:03;;;;;;;13.50;5.93;;;13.20;99.90;;;;;;5056924;28;20187;-87
2022/10/11 09:54:45;;;;;;;14.70;4.90;;;13.30;99.90;;;;;;5055903;28;20521;-89
2022/10/11 09:57:32;;;;;;;9.10;4.57;;;13.50;99.90;;;;;;5057792;28;20156;-86
2022/10/11 09:59:59;;;;;;;15.30;5.78;;;13.90;99.90;;;;;;5056634;28;20501;-87
2022/10/11 10:02:27;;;;;;;8.10;4.80;;;13.90;99.90;;;;;;5054737;28;20748;-86
2022/10/11 10:04:56;;;;;;;7.82;5.28;;;14.00;99.90;;;;;;5037261;28;20259;-88
2022/10/11 10:07:22;;;;;;;12.20;4.90;;;14.00;99.90;;;;;;5036742;28;20211;-86
2022/10/11 10:09:48;;;;;;;10.05;4.93;;;14.20;99.90;;;;;;5035664;28;20299;-87
2022/10/11 10:12:36;;;;;;;8.73;5.28;;;14.30;99.90;;;;;;5045025;28;20245;-87
2022/10/11 10:15:06;;;;;;;9.30;4.88;;;14.50;99.90;;;;;;5056970;28;20176;-87
2022/10/11 10:17:33;;;;;;;10.02;5.18;;;14.70;99.90;;;;;;5055623;28;20376;-87
2022/10/11 10:19:59;;;;;;;8.40;4.50;;;14.90;99.90;;;;;;5057032;28;20180;-88
2022/10/11 10:22:30;;;;;;;8.50;4.78;;;14.80;99.90;;;;;;5056852;28;20624;-87
2022/10/11 10:25:00;;;;;;;11.43;6.75;;;14.70;99.90;;;;;;5056188;28;20270;-89
2022/10/11 10:27:29;;;;;;;8.05;4.55;;;14.70;99.90;;;;;;5055399;28;20176;-90
2022/10/11 10:30:03;;;;;;;10.13;5.00;;;14.60;99.90;;;;;;5055377;28;20196;-88
2022/10/11 10:33:04;;;;;;;10.25;4.57;;;14.60;99.90;;;;;;5056971;28;20270;-89
2022/10/11 10:35:40;;;;;;;11.18;5.18;;;14.70;99.90;;;;;;5055588;28;20225;-87
2022/10/11 10:38:17;;;;;;;11.82;5.10;;;14.80;99.90;;;;;;5055662;28;20175;-85
2022/10/11 10:40:48;;;;;;;10.27;5.85;;;15.00;99.90;;;;;;5056450;28;20164;-87
2022/10/11 10:43:20;;;;;;;7.30;4.18;;;15.00;99.90;;;;;;5055912;28;20196;-87
2022/10/11 10:46:28;;;;;;;6.53;4.47;;;15.20;99.90;;;;;;5063889;28;20215;-87
2022/10/11 10:49:26;;;;;;;11.35;5.57;;;15.40;99.90;;;;;;5022967;28;20214;-88
2022/10/11 10:52:21;;;;;;;8.45;4.97;;;15.60;99.90;;;;;;4974516;28;20455;-89
2022/10/11 10:55:12;;;;;;;8.57;4.70;;;15.60;99.90;;;;;;4975574;28;20231;-86
2022/10/11 10:58:15;;;;;;;10.35;5.82;;;15.70;99.90;;;;;;5058275;28;20175;-88
2022/10/11 11:00:57;;;;;;;10.57;4.75;;;15.70;99.90;;;;;;5058353;28;20238;-88
2022/10/11 11:03:32;;;;;;;7.53;4.65;;;15.60;99.90;;;;;;5059520;28;20187;-88
2022/10/11 11:06:16;;;;;;;10.98;5.28;;;15.60;99.90;;;;;;5075836;28;20198;-88
2022/10/11 11:09:23;;;;;;;7.75;4.22;;;15.80;99.90;;;;;;5076137;28;20229;-90
2022/10/11 11:12:10;;;;;;;13.45;4.38;;;15.90;99.90;;;;;;5028296;28;20240;-88
2022/10/11 11:14:45;;;;;;;10.07;5.38;;;15.90;99.90;;;;;;5058266;28;20179;-88
2022/10/11 11:17:43;;;;;;;13.20;5.20;;;16.00;99.90;;;;;;5058933;28;20178;-88
2022/10/11 11:23:41;;;;;;;8.93;4.90;;;16.10;99.90;;;;;;5075849;28;20185;-89
2022/10/11 11:26:30;;;;;;;9.63;4.28;;;16.30;99.90;;;;;;5075782;28;20163;-90
2022/10/11 11:32:57;;;;;;;5.60;3.35;;;16.40;99.90;;;;;;4994758;28;20205;-89
2022/10/11 11:35:46;;;;;;;4.30;2.50;;;16.30;99.90;;;;;;5021771;28;20191;-89
2022/10/11 11:38:32;;;;;;;7.13;4.22;;;16.30;99.90;;;;;;5056559;28;20194;-89
2022/10/11 11:41:01;;;;;;;10.35;3.38;;;16.70;99.90;;;;;;5058422;28;20175;-89
2022/10/11 11:43:31;;;;;;;6.22;4.32;;;16.40;99.90;;;;;;5057999;28;20175;-88
2022/10/11 11:46:05;;;;;;;7.47;3.90;;;16.40;99.90;;;;;;5075173;28;20223;-89
2022/10/11 11:48:31;;;;;;;6.93;3.65;;;16.50;99.90;;;;;;5075293;28;20191;-88
2022/10/11 11:51:06;;;;;;;8.38;3.60;;;16.40;99.90;;;;;;5057209;28;20194;-89
2022/10/11 12:03:32;;;;;;;3.60;2.58;;;16.30;99.90;;;;;;5054400;28;20168;-88
2022/10/11 12:06:13;;;;;;;6.95;3.72;;;16.20;99.90;;;;;;5037332;28;20253;-89
2022/10/11 12:08:42;;;;;;;6.88;3.20;;;16.20;99.90;;;;;;5036863;28;20213;-89
2022/10/11 12:11:23;;;;;;;9.95;3.70;;;16.30;99.90;;;;;;5054362;28;20719;-89
2022/10/11 12:13:52;;;;;;;5.28;3.53;;;16.20;99.90;;;;;;5062831;28;20190;-94
2022/10/11 12:16:19;;;;;;;4.55;3.38;;;16.20;99.90;;;;;;5061543;28;20184;-88
2022/10/11 12:19:01;;;;;;;5.82;3.58;;;16.10;99.90;;;;;;5040388;28;20195;-88
2022/10/11 12:21:37;;;;;;;6.35;3.70;;;16.00;99.90;;;;;;5054322;28;20180;-89
2022/10/11 12:24:23;;;;;;;7.68;3.33;;;15.80;99.90;;;;;;5036776;28;20172;-89
2022/10/11 12:26:57;;;;;;;7.18;3.10;;;15.70;99.90;;;;;;5039786;28;20183;-88
2022/10/11 12:29:42;;;;;;;6.72;3.47;;;15.60;99.90;;;;;;5059683;28;20238;-87
2022/10/11 12:32:09;;;;;;;4.07;2.83;;;15.50;99.90;;;;;;5039030;28;20182;-89
2022/10/11 12:34:38;;;;;;;5.15;3.30;;;15.50;99.90;;;;;;5054678;28;20178;-89
2022/10/11 12:37:18;;;;;;;4.55;3.28;;;15.50;99.90;;;;;;5036472;28;20167;-89
2022/10/11 12:39:55;;;;;;;8.43;4.55;;;15.50;99.90;;;;;;5036445;28;20574;-89
2022/10/11 12:42:20;;;;;;;7.53;4.32;;;15.40;99.90;;;;;;5020449;28;20189;-88
2022/10/11 12:51:58;;;;;;;7.97;3.55;;;15.40;99.90;;;;;;5053918;28;20203;-89
2022/10/11 12:54:36;;;;;;;8.73;3.35;;;15.30;99.90;;;;;;5004043;28;20583;-88
2022/10/11 12:57:08;;;;;;;8.20;4.38;;;15.20;99.90;;;;;;5035830;28;20219;-88
2022/10/11 12:59:38;;;;;;;6.07;3.47;;;15.10;99.90;;;;;;5036113;28;20542;-89
2022/10/11 13:02:27;;;;;;;4.07;3.20;;;15.00;99.90;;;;;;5020163;28;20487;-89
2022/10/11 13:05:14;;;;;;;5.90;4.15;;;15.00;99.90;;;;;;5053660;28;20183;-87
2022/10/11 13:07:40;;;;;;;5.93;3.60;;;15.00;99.90;;;;;;5054085;28;20177;-86
2022/10/11 13:10:06;;;;;;;8.30;4.47;;;14.90;99.90;;;;;;5036034;28;20226;-87
2022/10/11 13:12:41;;;;;;;8.18;4.65;;;15.00;99.90;;;;;;5035973;28;20700;-89
2022/10/11 13:15:16;;;;;;;6.78;3.88;;;15.10;99.90;;;;;;5035381;28;20618;-89
2022/10/11 13:17:42;;;;;;;6.90;3.63;;;15.40;99.90;;;;;;5036191;28;20194;-91
2022/10/11 13:20:14;;;;;;;5.22;3.38;;;15.90;99.90;;;;;;5019919;28;20175;-87
2022/10/11 13:22:40;;;;;;;5.30;3.42;;;16.20;99.90;;;;;;5035741;28;20180;-88
2022/10/11 13:25:07;;;;;;;7.90;4.43;;;16.10;99.90;;;;;;5053274;28;20301;-87
2022/10/11 13:27:36;;;;;;;5.53;3.55;;;16.20;99.90;;;;;;5002834;28;20187;-87
2022/10/11 13:30:07;;;;;;;3.88;2.85;;;16.20;99.90;;;;;;5052801;28;20727;-88
2022/10/11 13:32:35;;;;;;;4.15;2.80;;;16.00;99.90;;;;;;5035201;28;20191;-89
2022/10/11 13:35:05;;;;;;;3.60;2.60;;;16.10;99.90;;;;;;5053345;28;20169;-88
2022/10/11 13:37:44;;;;;;;4.45;3.13;;;16.50;99.90;;;;;;5054010;28;20183;-88
2022/10/11 13:40:15;;;;;;;5.70;2.63;;;17.00;99.90;;;;;;5036064;28;20176;-88